Time;durP1;ratioP1;P1;durP2;ratioP2;P2;SDS_P1;SDS_P2;PMS_P1;PMS_P2;Temp;Humidity;BMP_temperature;BMP_pressure;BME280_temperature;BME280_humidity;BME280_pressure;Samples;Min_cycle;Max_cycle;Signal;HPM_P1;HPM_P2
2022/10/14 00:00:33;;;;;;;18.10;10.20;;;;;;;11.88;100.00;101315.09;5083596;28;20036;-75
2022/10/14 00:02:59;;;;;;;22.00;11.38;;;;;;;11.87;100.00;101314.28;5069106;28;20032;-74
2022/10/14 00:05:24;;;;;;;21.38;11.75;;;;;;;11.87;100.00;101316.88;5064469;28;20028;-75
2022/10/14 00:07:50;;;;;;;18.08;10.52;;;;;;;11.87;100.00;101313.47;5066367;28;20092;-75
2022/10/14 00:10:15;;;;;;;19.30;10.55;;;;;;;11.87;100.00;101316.06;5056596;28;20402;-75
2022/10/14 00:12:41;;;;;;;20.55;12.45;;;;;;;11.95;100.00;101313.53;5067317;28;20032;-76
2022/10/14 00:15:07;;;;;;;21.25;11.57;;;;;;;11.93;100.00;101312.88;5042388;28;20434;-75
2022/10/14 00:17:33;;;;;;;21.02;11.30;;;;;;;11.92;100.00;101300.84;5054028;28;20032;-75
2022/10/14 00:19:59;;;;;;;19.35;9.93;;;;;;;11.90;100.00;101310.59;5065582;28;20044;-76
2022/10/14 00:22:25;;;;;;;23.75;12.77;;;;;;;11.96;100.00;101304.78;5061328;28;20033;-75
2022/10/14 00:24:50;;;;;;;20.30;11.38;;;;;;;11.94;100.00;101303.28;5049703;28;20063;-75
2022/10/14 00:27:15;;;;;;;22.75;12.23;;;;;;;11.91;100.00;101307.03;5057059;28;20025;-75
2022/10/14 00:29:42;;;;;;;23.70;13.75;;;;;;;11.99;100.00;101311.47;5063811;28;20807;-75
2022/10/14 00:32:07;;;;;;;28.17;13.52;;;;;;;12.05;100.00;101306.47;5059134;28;20032;-75
2022/10/14 00:34:33;;;;;;;24.17;13.50;;;;;;;12.05;100.00;101310.84;5063031;28;20501;-75
2022/10/14 00:36:58;;;;;;;19.23;11.35;;;;;;;11.96;100.00;101307.41;5062642;28;20040;-75
2022/10/14 00:39:24;;;;;;;24.23;12.70;;;;;;;11.97;100.00;101306.41;5060883;28;20032;-75
2022/10/14 00:41:50;;;;;;;24.13;11.75;;;;;;;11.92;100.00;101302.63;5064872;28;20059;-75
2022/10/14 00:44:18;;;;;;;22.85;12.35;;;;;;;11.97;100.00;101303.81;5063543;28;20068;-75
2022/10/14 00:46:46;;;;;;;26.15;12.70;;;;;;;11.95;100.00;101307.53;5062368;28;20041;-75
2022/10/14 00:49:15;;;;;;;21.17;11.85;;;;;;;11.90;100.00;101309.78;5046371;28;20029;-75
2022/10/14 00:51:47;;;;;;;20.02;10.70;;;;;;;11.87;100.00;101305.69;5065684;28;20036;-75
2022/10/14 00:54:15;;;;;;;18.75;10.80;;;;;;;11.87;100.00;101308.28;5057257;28;20425;-75
2022/10/14 00:56:43;;;;;;;25.70;13.20;;;;;;;11.94;100.00;101301.53;5055578;28;20029;-75
2022/10/14 00:59:09;;;;;;;22.92;12.20;;;;;;;11.92;100.00;101307.84;5077072;28;20131;-75
2022/10/14 01:01:34;;;;;;;20.30;11.68;;;;;;;11.88;100.00;101305.53;5061319;28;20039;-75
2022/10/14 01:04:00;;;;;;;19.67;11.00;;;;;;;11.88;100.00;101296.91;5061469;28;20683;-75
2022/10/14 01:06:40;;;;;;;26.13;13.00;;;;;;;11.89;100.00;101298.53;5059070;28;20033;-75
2022/10/14 01:09:15;;;;;;;19.08;10.85;;;;;;;11.88;100.00;101292.53;5076957;28;20036;-75
2022/10/14 01:12:06;;;;;;;23.50;11.50;;;;;;;11.88;100.00;101292.53;5057359;28;20111;-75
2022/10/14 01:14:50;;;;;;;20.50;12.10;;;;;;;11.91;100.00;101282.84;5026990;28;20118;-75
2022/10/14 01:17:25;;;;;;;24.00;10.93;;;;;;;11.91;100.00;101288.03;5051727;28;20056;-75
2022/10/14 01:20:38;;;;;;;21.77;11.10;;;;;;;11.88;100.00;101284.75;5060996;28;20101;-75
2022/10/14 01:23:16;;;;;;;22.42;12.07;;;;;;;11.92;100.00;101281.84;5053223;28;20044;-75
2022/10/14 01:25:44;;;;;;;20.35;10.77;;;;;;;11.87;100.00;101277.91;5063950;28;20451;-74
2022/10/14 01:28:16;;;;;;;18.33;11.27;;;;;;;11.86;100.00;101278.84;5062953;28;20039;-75
2022/10/14 01:30:49;;;;;;;16.40;9.47;;;;;;;11.86;100.00;101278.03;5059523;28;20036;-75
2022/10/14 01:33:26;;;;;;;14.95;10.25;;;;;;;11.86;100.00;101276.25;5062494;28;20478;-75
2022/10/14 01:36:08;;;;;;;17.30;9.68;;;;;;;11.85;100.00;101272.03;5040881;28;20481;-75
2022/10/14 01:38:43;;;;;;;19.80;10.07;;;;;;;11.87;100.00;101267.50;5059347;28;20405;-75
2022/10/14 01:41:18;;;;;;;27.25;12.02;;;;;;;11.91;100.00;101265.44;5045172;28;20063;-75
2022/10/14 01:43:46;;;;;;;16.77;10.13;;;;;;;11.88;100.00;101266.56;5046867;28;20487;-75
2022/10/14 01:46:17;;;;;;;20.25;11.70;;;;;;;11.90;100.00;101260.41;5081269;28;20033;-75
2022/10/14 01:48:48;;;;;;;18.90;10.98;;;;;;;11.91;100.00;101262.84;5088046;28;20087;-75
2022/10/14 01:51:20;;;;;;;24.38;12.45;;;;;;;11.98;100.00;101258.69;5076868;28;20063;-75
2022/10/14 01:54:02;;;;;;;23.13;11.25;;;;;;;11.95;100.00;101258.16;5061416;28;20036;-75
2022/10/14 01:56:30;;;;;;;22.40;12.57;;;;;;;11.95;100.00;101247.78;5069458;28;20283;-75
2022/10/14 01:58:59;;;;;;;20.50;12.30;;;;;;;11.94;100.00;101246.97;5052836;28;20033;-76
2022/10/14 02:01:26;;;;;;;22.70;12.27;;;;;;;11.92;100.00;101248.88;5057274;28;20175;-75
2022/10/14 02:03:51;;;;;;;18.27;10.15;;;;;;;11.91;100.00;101252.47;5068066;28;20126;-76
2022/10/14 02:06:21;;;;;;;18.65;12.68;;;;;;;11.87;100.00;101246.72;5050727;28;20025;-75
2022/10/14 02:09:10;;;;;;;29.05;12.05;;;;;;;11.89;100.00;101243.97;5047653;28;20105;-76
2022/10/14 02:11:56;;;;;;;19.30;11.02;;;;;;;11.90;100.00;101244.81;5069397;28;20051;-76
2022/10/14 02:14:36;;;;;;;21.40;12.05;;;;;;;11.88;100.00;101248.38;5039947;28;20029;-76
2022/10/14 02:17:05;;;;;;;21.85;12.13;;;;;;;11.95;100.00;101243.38;5054816;28;20036;-76
2022/10/14 02:19:44;;;;;;;26.25;13.98;;;;;;;12.01;100.00;101247.16;5056428;28;20115;-76
2022/10/14 02:22:28;;;;;;;27.42;12.90;;;;;;;11.98;100.00;101243.09;5036750;28;20155;-76
2022/10/14 02:24:59;;;;;;;21.50;12.68;;;;;;;12.03;100.00;101240.00;5069531;28;20039;-76
2022/10/14 02:27:27;;;;;;;22.23;12.00;;;;;;;11.99;100.00;101238.69;5044792;28;20041;-75
2022/10/14 02:29:55;;;;;;;21.38;13.40;;;;;;;12.01;100.00;101244.53;5061507;28;20117;-76
2022/10/14 02:32:23;;;;;;;22.80;11.60;;;;;;;11.96;100.00;101231.19;5039431;28;20032;-76
2022/10/14 02:34:52;;;;;;;22.08;13.50;;;;;;;11.92;100.00;101222.88;5046095;28;20025;-76
2022/10/14 02:37:20;;;;;;;24.70;13.50;;;;;;;12.01;100.00;101226.34;5032912;28;20490;-76
2022/10/14 02:39:55;;;;;;;21.63;12.82;;;;;;;11.96;100.00;101215.59;5041966;28;20097;-76
2022/10/14 02:42:24;;;;;;;22.17;12.07;;;;;;;11.95;100.00;101220.00;5052595;28;20052;-76
2022/10/14 02:44:54;;;;;;;24.17;13.25;;;;;;;12.03;100.00;101214.00;5057893;28;20758;-76
2022/10/14 02:47:21;;;;;;;17.88;11.57;;;;;;;11.96;100.00;101213.00;5053628;28;20036;-76
2022/10/14 02:49:48;;;;;;;22.00;12.95;;;;;;;12.03;100.00;101209.63;5044656;28;20032;-76
2022/10/14 02:52:13;;;;;;;25.33;12.75;;;;;;;11.95;100.00;101209.59;5054716;28;20078;-76
2022/10/14 02:54:39;;;;;;;22.55;12.10;;;;;;;11.91;100.00;101208.28;5055518;28;20439;-76
2022/10/14 02:57:04;;;;;;;24.05;13.20;;;;;;;11.93;100.00;101203.75;5050856;28;20497;-77
2022/10/14 02:59:30;;;;;;;21.20;13.80;;;;;;;11.93;100.00;101200.34;5062428;28;20086;-77
2022/10/14 03:01:57;;;;;;;26.27;14.25;;;;;;;11.97;100.00;101197.25;5046150;28;20032;-77
2022/10/14 03:04:23;;;;;;;19.70;12.57;;;;;;;11.94;100.00;101204.53;5074779;28;20037;-77
2022/10/14 03:06:50;;;;;;;22.15;12.13;;;;;;;11.97;100.00;101206.84;5068877;28;20563;-78
2022/10/14 03:09:17;;;;;;;18.98;12.07;;;;;;;11.95;100.00;101201.00;5071119;28;20585;-79
2022/10/14 03:11:45;;;;;;;26.27;13.77;;;;;;;11.93;100.00;101198.53;5068887;28;20033;-78
2022/10/14 03:14:15;;;;;;;23.40;13.07;;;;;;;11.93;100.00;101197.72;5071536;28;20108;-78
2022/10/14 03:16:42;;;;;;;19.65;12.05;;;;;;;11.93;100.00;101197.72;5045999;28;20107;-79
2022/10/14 03:19:08;;;;;;;19.58;12.68;;;;;;;11.91;100.00;101197.06;5061785;28;20039;-78
2022/10/14 03:21:42;;;;;;;25.15;13.95;;;;;;;11.91;100.00;101195.28;5058259;28;20119;-78
2022/10/14 03:24:14;;;;;;;19.30;12.02;;;;;;;12.02;100.00;101191.63;5058178;28;20036;-78
2022/10/14 03:26:40;;;;;;;21.60;13.23;;;;;;;12.03;100.00;101198.41;5056308;28;20185;-76
2022/10/14 03:29:06;;;;;;;25.40;12.98;;;;;;;12.05;100.00;101193.88;5072696;28;20059;-77
2022/10/14 03:31:49;;;;;;;21.85;12.75;;;;;;;12.05;100.00;101188.69;5049408;28;20033;-77
2022/10/14 03:34:22;;;;;;;22.05;12.10;;;;;;;12.11;100.00;101189.84;5061540;28;20037;-78
2022/10/14 03:36:53;;;;;;;19.13;11.70;;;;;;;12.03;100.00;101180.22;5067525;28;20032;-78
2022/10/14 03:39:20;;;;;;;18.65;11.65;;;;;;;12.02;100.00;101183.81;5053984;28;20032;-77
2022/10/14 03:41:50;;;;;;;24.02;12.88;;;;;;;11.97;100.00;101181.66;5038321;28;20094;-78
2022/10/14 03:44:20;;;;;;;21.70;12.32;;;;;;;11.98;100.00;101182.47;5072216;28;20033;-78
2022/10/14 03:47:05;;;;;;;20.48;12.05;;;;;;;12.01;100.00;101182.97;5061844;28;20032;-79
2022/10/14 03:49:32;;;;;;;24.55;12.48;;;;;;;11.99;100.00;101176.31;5068804;28;20028;-79
2022/10/14 03:52:03;;;;;;;21.73;11.32;;;;;;;11.99;100.00;101179.72;5056097;28;20089;-80
2022/10/14 03:54:33;;;;;;;19.42;12.13;;;;;;;11.98;100.00;101179.88;5084978;28;20033;-80
2022/10/14 03:56:59;;;;;;;20.08;11.75;;;;;;;12.00;100.00;101183.16;5055521;28;20167;-78
2022/10/14 03:59:28;;;;;;;16.85;10.90;;;;;;;11.94;100.00;101181.16;5077180;28;20044;-78
2022/10/14 04:01:55;;;;;;;21.50;12.15;;;;;;;12.01;100.00;101179.56;5071523;28;20024;-78
2022/10/14 04:04:23;;;;;;;18.85;11.85;;;;;;;12.03;100.00;101178.44;5041935;28;20108;-78
2022/10/14 04:06:49;;;;;;;19.30;12.68;;;;;;;12.05;100.00;101183.47;5069875;28;20040;-78
2022/10/14 04:09:17;;;;;;;16.85;11.43;;;;;;;12.05;100.00;101178.28;5056042;28;20040;-76
2022/10/14 04:11:43;;;;;;;16.90;10.65;;;;;;;12.01;100.00;101182.16;5044642;28;20044;-77
2022/10/14 04:14:19;;;;;;;17.27;10.88;;;;;;;11.96;100.00;101181.81;5060215;28;20037;-79
2022/10/14 04:16:48;;;;;;;18.50;11.75;;;;;;;12.07;100.00;101178.94;5045057;28;20033;-76
2022/10/14 04:19:14;;;;;;;23.08;12.82;;;;;;;12.00;100.00;101175.34;5048135;28;20091;-78
2022/10/14 04:21:40;;;;;;;29.67;13.02;;;;;;;12.00;100.00;101172.75;5066221;28;20040;-77
2022/10/14 04:24:07;;;;;;;24.00;12.13;;;;;;;12.00;100.00;101173.56;5069245;28;20093;-77
2022/10/14 04:26:39;;;;;;;22.88;12.00;;;;;;;12.08;100.00;101180.59;5057930;28;20445;-76
2022/10/14 04:29:11;;;;;;;22.10;12.00;;;;;;;12.08;100.00;101181.38;5053242;28;20063;-78
2022/10/14 04:31:52;;;;;;;22.73;11.27;;;;;;;11.99;100.00;101173.72;5069931;28;20033;-76
2022/10/14 04:34:18;;;;;;;23.70;12.70;;;;;;;12.01;100.00;101167.38;5053525;28;20389;-76
2022/10/14 04:36:43;;;;;;;19.35;12.30;;;;;;;11.99;100.00;101166.72;5044978;28;20032;-77
2022/10/14 04:39:39;;;;;;;24.02;12.85;;;;;;;12.05;100.00;101162.69;5052765;28;20386;-77
2022/10/14 04:42:05;;;;;;;20.77;12.77;;;;;;;12.08;100.00;101165.00;5067425;28;20037;-77
2022/10/14 04:44:30;;;;;;;23.50;12.20;;;;;;;12.00;100.00;101159.75;5061923;28;20044;-78
2022/10/14 04:46:59;;;;;;;21.27;12.20;;;;;;;12.01;100.00;101161.38;5075222;28;21295;-80
2022/10/14 04:49:26;;;;;;;20.63;12.35;;;;;;;12.03;100.00;101162.84;5039219;28;20491;-77
2022/10/14 04:52:01;;;;;;;22.90;13.07;;;;;;;11.97;100.00;101155.69;5047625;28;20033;-80
2022/10/14 04:54:41;;;;;;;21.00;12.23;;;;;;;11.98;100.00;101156.47;5054575;28;20047;-79
2022/10/14 04:57:08;;;;;;;17.77;11.18;;;;;;;12.04;100.00;101137.69;5068529;28;20489;-79
2022/10/14 04:59:34;;;;;;;17.25;11.07;;;;;;;12.05;100.00;101141.91;5058201;28;20043;-79
2022/10/14 05:02:05;;;;;;;18.95;10.88;;;;;;;12.01;100.00;101136.19;5056446;28;20056;-79
2022/10/14 05:04:37;;;;;;;21.33;12.18;;;;;;;12.00;100.00;101136.38;5059248;28;20512;-77
2022/10/14 05:07:03;;;;;;;18.50;11.38;;;;;;;12.03;100.00;101139.44;5073115;28;20028;-79
2022/10/14 05:09:30;;;;;;;20.73;10.98;;;;;;;11.95;100.00;101136.84;5072055;28;20079;-78
2022/10/14 05:11:56;;;;;;;19.15;11.05;;;;;;;11.96;100.00;101140.22;5055241;28;20024;-78
2022/10/14 05:14:31;;;;;;;18.70;11.30;;;;;;;12.09;100.00;101130.22;5037662;28;20037;-76
2022/10/14 05:17:09;;;;;;;18.52;10.48;;;;;;;12.00;100.00;101131.19;5040272;28;20032;-78
2022/10/14 05:19:34;;;;;;;18.08;10.48;;;;;;;11.94;100.00;101124.00;5038435;28;20028;-77
2022/10/14 05:22:00;;;;;;;21.88;10.93;;;;;;;11.95;100.00;101125.63;5071619;28;20039;-79
2022/10/14 05:24:32;;;;;;;19.08;10.63;;;;;;;11.92;100.00;101128.53;5069457;28;20511;-78
2022/10/14 05:26:57;;;;;;;16.30;10.43;;;;;;;12.09;100.00;101127.59;5070942;28;20029;-77
2022/10/14 05:29:24;;;;;;;17.67;10.10;;;;;;;12.02;100.00;101124.03;5040878;28;20066;-78
2022/10/14 05:31:50;;;;;;;18.05;11.25;;;;;;;11.98;100.00;101128.72;5040076;28;20418;-77
2022/10/14 05:34:34;;;;;;;16.35;9.48;;;;;;;11.94;100.00;101124.81;5081716;28;20189;-78
2022/10/14 05:37:02;;;;;;;17.33;11.38;;;;;;;11.98;100.00;101130.50;5044745;28;20781;-77
2022/10/14 05:39:34;;;;;;;15.07;9.80;;;;;;;12.07;100.00;101127.78;5062305;28;20627;-77
2022/10/14 05:41:59;;;;;;;17.65;11.23;;;;;;;12.04;100.00;101116.91;5032931;28;20040;-77
2022/10/14 05:44:27;;;;;;;17.67;11.02;;;;;;;12.01;100.00;101117.19;5050831;28;20077;-77
2022/10/14 05:46:53;;;;;;;23.17;11.45;;;;;;;12.03;100.00;101112.66;5067070;28;20033;-77
2022/10/14 05:49:19;;;;;;;25.65;14.05;;;;;;;12.01;100.00;101105.00;5064221;28;20037;-75
2022/10/14 05:51:46;;;;;;;22.17;13.27;;;;;;;12.05;100.00;101106.34;5059412;28;20486;-76
2022/10/14 05:54:18;;;;;;;23.27;13.88;;;;;;;12.05;100.00;101105.50;5056069;28;20029;-76
2022/10/14 05:56:47;;;;;;;24.17;14.63;;;;;;;12.02;100.00;101103.25;5052727;28;20104;-77
2022/10/14 05:59:13;;;;;;;27.35;14.60;;;;;;;12.01;100.00;101099.81;5066993;28;20021;-78
2022/10/14 06:01:40;;;;;;;24.20;15.10;;;;;;;11.98;100.00;101097.53;5056120;28;20513;-77
2022/10/14 06:04:06;;;;;;;28.15;14.45;;;;;;;11.96;100.00;101103.84;5051414;28;20036;-78
2022/10/14 06:06:32;;;;;;;26.08;14.82;;;;;;;12.01;100.00;101104.19;5049183;28;21232;-77
2022/10/14 06:08:58;;;;;;;24.73;15.45;;;;;;;12.05;100.00;101098.53;5081802;28;20082;-78
2022/10/14 06:11:24;;;;;;;25.65;14.65;;;;;;;12.04;100.00;101096.91;5074919;28;20029;-77
2022/10/14 06:13:49;;;;;;;31.70;15.23;;;;;;;12.14;100.00;101095.97;5036411;28;20032;-75
2022/10/14 06:16:16;;;;;;;24.65;14.98;;;;;;;12.04;100.00;101091.72;5055934;28;20032;-78
2022/10/14 06:18:42;;;;;;;25.60;14.45;;;;;;;12.10;100.00;101094.66;5050840;28;20123;-77
2022/10/14 06:21:10;;;;;;;22.27;13.73;;;;;;;12.01;100.00;101093.81;5070967;28;20032;-78
2022/10/14 06:23:36;;;;;;;25.17;14.40;;;;;;;12.05;100.00;101095.94;5065604;28;20094;-77
2022/10/14 06:26:06;;;;;;;28.15;13.38;;;;;;;12.07;100.00;101090.56;5055421;28;20039;-76
2022/10/14 06:28:31;;;;;;;24.13;14.02;;;;;;;12.03;100.00;101097.88;5051917;28;20045;-78
2022/10/14 06:30:57;;;;;;;23.08;13.77;;;;;;;12.11;100.00;101091.06;5072158;28;20028;-75
2022/10/14 06:33:22;;;;;;;27.27;15.27;;;;;;;12.12;100.00;101092.72;5080180;28;20053;-79
2022/10/14 06:35:48;;;;;;;22.17;12.77;;;;;;;12.03;100.00;101097.88;5051467;28;20041;-76
2022/10/14 06:38:13;;;;;;;26.45;13.40;;;;;;;12.03;100.00;101094.47;5037872;28;20036;-79
2022/10/14 06:40:39;;;;;;;22.00;13.18;;;;;;;12.04;100.00;101088.31;5057455;28;20047;-79
2022/10/14 06:43:04;;;;;;;24.50;12.27;;;;;;;12.08;100.00;101084.41;5053033;28;20392;-76
2022/10/14 06:45:30;;;;;;;24.05;12.85;;;;;;;12.08;100.00;101084.41;5045905;28;20044;-78
2022/10/14 06:47:56;;;;;;;20.33;12.57;;;;;;;12.12;100.00;101074.50;5079817;28;20040;-80
2022/10/14 06:50:22;;;;;;;19.02;10.63;;;;;;;12.15;100.00;101072.41;5051580;28;20381;-79
2022/10/14 06:52:48;;;;;;;22.50;12.90;;;;;;;12.13;100.00;101076.13;5036876;28;20032;-77
2022/10/14 06:55:14;;;;;;;18.98;12.10;;;;;;;12.19;100.00;101068.50;5051458;28;20488;-79
2022/10/14 06:57:40;;;;;;;20.50;13.05;;;;;;;12.21;100.00;101069.16;5047833;28;20042;-79
2022/10/14 07:00:06;;;;;;;23.95;12.55;;;;;;;12.14;100.00;101069.97;5044253;28;20037;-78
2022/10/14 07:02:35;;;;;;;19.10;12.15;;;;;;;12.17;100.00;101064.47;5050903;28;20063;-77
2022/10/14 07:05:01;;;;;;;20.52;12.15;;;;;;;12.28;100.00;101056.31;5047683;28;20528;-78
2022/10/14 07:07:26;;;;;;;24.42;12.45;;;;;;;12.23;100.00;101059.41;5042021;28;20033;-78
2022/10/14 07:09:52;;;;;;;22.10;12.68;;;;;;;12.22;100.00;101063.00;5083420;28;20056;-76
2022/10/14 07:12:18;;;;;;;21.20;11.73;;;;;;;12.23;100.00;101056.81;5059014;28;20062;-76
2022/10/14 07:14:43;;;;;;;22.00;12.63;;;;;;;12.25;100.00;101059.25;5081752;28;20033;-77
2022/10/14 07:17:09;;;;;;;23.40;13.48;;;;;;;12.24;100.00;101061.06;5045218;28;20024;-77
2022/10/14 07:19:34;;;;;;;25.65;13.93;;;;;;;12.18;100.00;101066.06;5056389;28;20126;-77
2022/10/14 07:22:00;;;;;;;27.17;14.13;;;;;;;12.18;100.00;101066.88;5075406;28;20048;-77
2022/10/14 07:24:26;;;;;;;23.10;14.55;;;;;;;12.25;100.00;101067.88;5074359;28;20043;-78
2022/10/14 07:26:51;;;;;;;24.77;13.50;;;;;;;12.24;100.00;101058.47;5064110;28;20041;-76
2022/10/14 07:29:17;;;;;;;25.35;13.10;;;;;;;12.22;100.00;101054.38;5057361;28;20036;-77
2022/10/14 07:31:43;;;;;;;21.77;13.35;;;;;;;12.31;100.00;101055.22;5087573;28;20033;-76
2022/10/14 07:34:08;;;;;;;28.02;13.75;;;;;;;12.29;100.00;101050.16;5055521;28;20020;-77
2022/10/14 07:36:33;;;;;;;19.30;12.13;;;;;;;12.26;100.00;101053.91;5053831;28;20078;-77
2022/10/14 07:38:59;;;;;;;20.17;12.07;;;;;;;12.30;100.00;101048.38;5054924;28;20040;-76
2022/10/14 07:41:25;;;;;;;22.48;12.35;;;;;;;12.35;100.00;101051.31;5063947;28;20037;-77
2022/10/14 07:44:01;;;;;;;18.45;11.50;;;;;;;12.42;100.00;101054.88;5039183;28;20040;-76
2022/10/14 07:46:33;;;;;;;18.75;11.30;;;;;;;12.44;100.00;101056.34;5087268;28;20075;-76
2022/10/14 07:49:05;;;;;;;18.05;11.48;;;;;;;12.40;100.00;101055.03;5069022;28;20119;-76
2022/10/14 07:51:32;;;;;;;21.17;12.18;;;;;;;12.51;100.00;101053.91;5047675;28;20640;-75
2022/10/14 07:54:00;;;;;;;25.38;12.45;;;;;;;12.53;100.00;101054.56;5086549;28;20048;-76
2022/10/14 07:56:26;;;;;;;20.80;11.85;;;;;;;12.59;100.00;101053.09;5061876;28;20572;-76
2022/10/14 07:58:52;;;;;;;18.65;11.25;;;;;;;12.65;100.00;101053.25;5057979;28;20039;-75
2022/10/14 08:01:18;;;;;;;21.30;11.60;;;;;;;12.67;100.00;101047.88;5052977;28;20115;-76
2022/10/14 08:03:45;;;;;;;16.83;10.20;;;;;;;12.65;100.00;101048.03;5056159;28;20708;-75
2022/10/14 08:06:11;;;;;;;16.15;10.93;;;;;;;12.65;100.00;101045.44;5057490;28;20033;-75
2022/10/14 08:08:37;;;;;;;15.27;10.10;;;;;;;12.70;100.00;101034.56;5057216;28;20028;-75
2022/10/14 08:11:11;;;;;;;18.55;10.05;;;;;;;12.77;100.00;101019.94;5040012;28;20033;-75
2022/10/14 08:13:37;;;;;;;15.05;9.55;;;;;;;12.62;100.00;101027.59;5062833;28;20038;-75
2022/10/14 08:16:02;;;;;;;14.40;8.90;;;;;;;12.73;100.00;101030.81;5064841;28;20020;-75
2022/10/14 08:18:28;;;;;;;16.42;9.30;;;;;;;12.70;100.00;101029.38;5061954;28;20403;-75
2022/10/14 08:20:53;;;;;;;17.90;9.00;;;;;;;12.84;100.00;101025.28;5042253;28;20040;-74
2022/10/14 08:23:19;;;;;;;16.33;9.73;;;;;;;12.84;100.00;101015.66;5039831;28;20029;-74
2022/10/14 08:25:47;;;;;;;13.10;8.70;;;;;;;12.90;100.00;101003.78;5055833;28;20093;-75
2022/10/14 08:28:13;;;;;;;12.38;7.80;;;;;;;12.91;100.00;100996.81;5060252;28;20040;-74
2022/10/14 08:30:38;;;;;;;14.75;8.63;;;;;;;12.91;100.00;101002.81;5060632;28;20045;-76
2022/10/14 08:33:04;;;;;;;13.60;8.68;;;;;;;12.95;100.00;100998.91;5060614;28;20416;-74
2022/10/14 08:35:29;;;;;;;15.45;8.52;;;;;;;12.98;100.00;100998.56;5060353;28;20469;-75
2022/10/14 08:37:59;;;;;;;12.75;8.10;;;;;;;12.98;100.00;101006.38;5058519;28;20040;-75
2022/10/14 08:40:28;;;;;;;14.43;8.70;;;;;;;13.00;100.00;101001.00;5055992;28;20134;-76
2022/10/14 08:43:18;;;;;;;12.23;9.07;;;;;;;12.99;100.00;100997.56;5057515;28;20032;-74
2022/10/14 08:45:49;;;;;;;15.00;9.10;;;;;;;12.95;100.00;100992.88;5088974;28;20083;-75
2022/10/14 08:48:18;;;;;;;13.27;10.10;;;;;;;12.97;100.00;100989.13;5051070;28;20174;-79
2022/10/14 08:50:50;;;;;;;14.13;9.27;;;;;;;12.98;100.00;100993.38;5073126;28;20096;-76
2022/10/14 08:53:20;;;;;;;13.70;9.27;;;;;;;13.04;100.00;100994.50;5084288;28;20545;-74
2022/10/14 08:55:50;;;;;;;16.70;9.80;;;;;;;13.15;100.00;100980.31;5052351;28;20043;-75
2022/10/14 08:58:18;;;;;;;14.25;9.65;;;;;;;13.21;100.00;100979.63;5053489;28;20085;-74
2022/10/14 09:00:48;;;;;;;17.05;9.98;;;;;;;13.18;100.00;100975.56;5050503;28;20062;-75
2022/10/14 09:03:19;;;;;;;21.02;9.50;;;;;;;13.20;100.00;100967.56;5055038;28;20814;-74
2022/10/14 09:05:52;;;;;;;16.67;11.07;;;;;;;13.23;100.00;100972.44;5067450;28;20413;-74
2022/10/14 09:08:20;;;;;;;16.23;10.80;;;;;;;13.21;100.00;100962.19;5059614;28;20033;-74
2022/10/14 09:10:46;;;;;;;12.32;8.80;;;;;;;13.26;100.00;100964.31;5062082;28;20750;-74
2022/10/14 09:13:20;;;;;;;14.85;9.10;;;;;;;13.22;100.00;100968.22;5057378;28;20059;-76
2022/10/14 09:15:51;;;;;;;17.23;9.57;;;;;;;13.33;100.00;100967.06;5067326;28;20299;-77
2022/10/14 09:18:31;;;;;;;15.10;8.68;;;;;;;13.36;100.00;100959.72;5058164;28;20051;-75
2022/10/14 09:20:58;;;;;;;15.40;9.73;;;;;;;13.35;100.00;100965.09;5058071;28;20036;-75
2022/10/14 09:23:26;;;;;;;17.25;10.13;;;;;;;13.32;100.00;100965.47;5052346;28;20032;-74
2022/10/14 09:25:58;;;;;;;15.25;8.35;;;;;;;13.33;100.00;100962.66;5066328;28;20040;-74
2022/10/14 09:28:33;;;;;;;13.88;8.90;;;;;;;13.38;100.00;100965.56;5060594;28;20542;-75
2022/10/14 09:30:58;;;;;;;15.70;9.60;;;;;;;13.40;100.00;100955.81;5054341;28;20493;-77
2022/10/14 09:33:26;;;;;;;13.15;9.27;;;;;;;13.34;100.00;100959.09;5054677;28;20032;-75
2022/10/14 09:35:51;;;;;;;17.55;9.63;;;;;;;13.39;100.00;100958.56;5039153;28;20032;-76
2022/10/14 09:38:17;;;;;;;14.95;9.20;;;;;;;13.48;100.00;100956.75;5065536;28;20028;-76
2022/10/14 09:40:46;;;;;;;15.65;8.82;;;;;;;13.49;100.00;100945.34;5036351;28;20033;-78
2022/10/14 09:43:19;;;;;;;19.13;9.05;;;;;;;13.53;100.00;100952.66;5086032;28;20036;-77
2022/10/14 09:46:06;;;;;;;14.60;8.35;;;;;;;13.48;100.00;100954.94;5055234;28;20048;-75
2022/10/14 09:48:51;;;;;;;15.32;8.98;;;;;;;13.61;100.00;100943.97;5055049;28;20033;-75
2022/10/14 09:51:24;;;;;;;15.02;9.55;;;;;;;13.59;100.00;100951.16;5039313;28;20036;-77
2022/10/14 09:53:53;;;;;;;14.65;9.75;;;;;;;13.69;100.00;100946.50;5055584;28;20043;-76
2022/10/14 09:56:29;;;;;;;16.20;10.10;;;;;;;13.61;100.00;100949.97;5038902;28;20032;-75
2022/10/14 09:58:57;;;;;;;16.55;10.10;;;;;;;13.63;100.00;100942.00;5040635;28;20035;-76
2022/10/14 10:01:26;;;;;;;17.80;10.63;;;;;;;13.63;100.00;100945.41;5066375;28;20025;-76
2022/10/14 10:03:52;;;;;;;19.58;11.55;;;;;;;13.78;100.00;100945.47;5052095;28;20421;-81
2022/10/14 10:06:26;;;;;;;18.70;10.20;;;;;;;13.76;100.00;100937.03;5035911;28;20032;-75
2022/10/14 10:08:52;;;;;;;16.38;10.38;;;;;;;13.77;100.00;100938.66;5051840;28;20055;-76
2022/10/14 10:11:28;;;;;;;21.50;11.90;;;;;;;13.77;100.00;100935.25;5052083;28;20032;-76
2022/10/14 10:13:53;;;;;;;20.88;12.40;;;;;;;13.85;100.00;100943.00;5035668;28;20139;-75
2022/10/14 10:16:33;;;;;;;20.92;12.32;;;;;;;13.83;100.00;100930.13;5049538;28;20029;-76
2022/10/14 10:19:26;;;;;;;21.15;12.95;;;;;;;13.76;100.00;100933.63;5088456;28;20497;-76
2022/10/14 10:21:52;;;;;;;24.13;12.30;;;;;;;13.84;100.00;100930.94;5086233;27;20048;-75
2022/10/14 10:24:20;;;;;;;29.13;13.07;;;;;;;13.91;100.00;100923.25;5054876;28;20060;-75
2022/10/14 10:26:47;;;;;;;23.85;14.07;;;;;;;13.87;100.00;100927.19;5050121;28;20043;-75
2022/10/14 10:29:23;;;;;;;27.08;14.18;;;;;;;13.93;100.00;100924.69;5082396;28;20071;-76
2022/10/14 10:31:59;;;;;;;23.92;13.25;;;;;;;13.86;100.00;100933.38;5052108;28;20111;-75
2022/10/14 10:34:39;;;;;;;24.30;13.98;;;;;;;13.84;100.00;100925.72;5051868;28;20033;-75
2022/10/14 10:37:16;;;;;;;25.95;14.23;;;;;;;13.90;100.00;100932.03;5055855;28;21446;-75
2022/10/14 10:40:01;;;;;;;29.33;15.10;;;;;;;13.97;100.00;100922.53;5042381;28;20040;-76
2022/10/14 10:42:42;;;;;;;36.42;16.55;;;;;;;13.88;100.00;100907.94;5070591;28;20119;-75
2022/10/14 10:45:49;;;;;;;25.98;14.48;;;;;;;13.88;100.00;100919.22;5056974;28;20643;-75
2022/10/14 10:48:23;;;;;;;29.65;15.00;;;;;;;13.81;100.00;100919.06;5032201;28;20055;-76
2022/10/14 10:51:15;;;;;;;27.23;14.40;;;;;;;13.79;100.00;100915.03;5085552;28;21606;-77
2022/10/14 10:53:49;;;;;;;27.67;14.52;;;;;;;13.75;100.00;100908.53;5071548;28;20036;-76
2022/10/14 10:56:32;;;;;;;25.13;14.43;;;;;;;13.82;100.00;100907.69;5056764;28;20048;-76
2022/10/14 10:59:10;;;;;;;25.30;15.10;;;;;;;13.80;100.00;100912.22;5084386;28;20545;-78
2022/10/14 11:01:53;;;;;;;28.23;14.60;;;;;;;13.71;100.00;100902.03;5060208;28;20041;-78
2022/10/14 11:04:33;;;;;;;21.52;12.68;;;;;;;13.70;100.00;100905.66;5058299;28;20036;-77
2022/10/14 11:14:03;;;;;;;25.70;13.93;;;;;;;13.78;100.00;100900.38;5072809;28;20256;-77
2022/10/14 11:16:47;;;;;;;21.30;12.27;;;;;;;13.87;100.00;100898.53;4984681;28;20491;-77
2022/10/14 11:19:17;;;;;;;21.48;13.52;;;;;;;13.91;100.00;100903.19;4998048;28;20063;-77
2022/10/14 11:22:18;;;;;;;24.52;12.68;;;;;;;13.91;100.00;100894.56;5044021;28;20052;-76